sensor_id;sensor_type;location;lat;lon;timestamp;temperature;humidity
68276;DHT22;55106;51.438;-0.098;2022-08-21T00:00:49;15.73;81.72
68276;DHT22;55106;51.438;-0.098;2022-08-21T00:03:15;15.65;81.88
68276;DHT22;55106;51.438;-0.098;2022-08-21T00:05:46;15.61;82.02
68276;DHT22;55106;51.438;-0.098;2022-08-21T00:08:12;15.59;82.10
68276;DHT22;55106;51.438;-0.098;2022-08-21T00:10:40;15.61;82.05
68276;DHT22;55106;51.438;-0.098;2022-08-21T00:13:06;15.58;82.15
68276;DHT22;55106;51.438;-0.098;2022-08-21T00:15:33;15.51;82.03
68276;DHT22;55106;51.438;-0.098;2022-08-21T00:17:59;15.46;82.14
68276;DHT22;55106;51.438;-0.098;2022-08-21T00:20:26;15.46;82.13
68276;DHT22;55106;51.438;-0.098;2022-08-21T00:22:51;15.48;82.19
68276;DHT22;55106;51.438;-0.098;2022-08-21T00:25:17;15.41;82.17
68276;DHT22;55106;51.438;-0.098;2022-08-21T00:27:43;15.38;82.25
68276;DHT22;55106;51.438;-0.098;2022-08-21T00:30:11;15.36;82.17
68276;DHT22;55106;51.438;-0.098;2022-08-21T00:32:40;15.34;82.33
68276;DHT22;55106;51.438;-0.098;2022-08-21T00:35:08;15.32;82.39
68276;DHT22;55106;51.438;-0.098;2022-08-21T00:37:34;15.32;82.21
68276;DHT22;55106;51.438;-0.098;2022-08-21T00:39:59;15.30;82.45
68276;DHT22;55106;51.438;-0.098;2022-08-21T00:42:26;15.28;82.48
68276;DHT22;55106;51.438;-0.098;2022-08-21T00:44:51;15.30;82.69
68276;DHT22;55106;51.438;-0.098;2022-08-21T00:47:21;15.25;82.77
68276;DHT22;55106;51.438;-0.098;2022-08-21T00:49:52;15.27;82.96
68276;DHT22;55106;51.438;-0.098;2022-08-21T00:52:21;15.17;83.12
68276;DHT22;55106;51.438;-0.098;2022-08-21T00:54:48;15.18;83.23
68276;DHT22;55106;51.438;-0.098;2022-08-21T00:57:21;15.15;83.23
68276;DHT22;55106;51.438;-0.098;2022-08-21T00:59:51;15.17;83.45
68276;DHT22;55106;51.438;-0.098;2022-08-21T01:02:25;15.24;83.62
68276;DHT22;55106;51.438;-0.098;2022-08-21T01:04:51;15.21;83.39
68276;DHT22;55106;51.438;-0.098;2022-08-21T01:07:17;15.17;83.59
68276;DHT22;55106;51.438;-0.098;2022-08-21T01:09:43;15.17;83.76
68276;DHT22;55106;51.438;-0.098;2022-08-21T01:12:11;15.11;83.86
68276;DHT22;55106;51.438;-0.098;2022-08-21T01:14:37;15.10;84.05
68276;DHT22;55106;51.438;-0.098;2022-08-21T01:17:03;15.03;84.24
68276;DHT22;55106;51.438;-0.098;2022-08-21T01:19:29;15.04;84.20
68276;DHT22;55106;51.438;-0.098;2022-08-21T01:21:55;15.04;84.48
68276;DHT22;55106;51.438;-0.098;2022-08-21T01:24:22;15.04;84.74
68276;DHT22;55106;51.438;-0.098;2022-08-21T01:26:49;15.03;84.93
68276;DHT22;55106;51.438;-0.098;2022-08-21T01:32:09;14.97;85.03
68276;DHT22;55106;51.438;-0.098;2022-08-21T01:34:38;14.94;85.10
68276;DHT22;55106;51.438;-0.098;2022-08-21T01:37:04;14.91;85.23
68276;DHT22;55106;51.438;-0.098;2022-08-21T01:39:30;14.93;85.30
68276;DHT22;55106;51.438;-0.098;2022-08-21T01:41:55;14.93;85.36
68276;DHT22;55106;51.438;-0.098;2022-08-21T01:44:22;14.96;85.54
68276;DHT22;55106;51.438;-0.098;2022-08-21T01:46:47;14.97;85.38
68276;DHT22;55106;51.438;-0.098;2022-08-21T01:49:14;14.91;85.61
68276;DHT22;55106;51.438;-0.098;2022-08-21T01:51:40;14.96;85.64
68276;DHT22;55106;51.438;-0.098;2022-08-21T01:54:05;14.94;85.54
68276;DHT22;55106;51.438;-0.098;2022-08-21T01:56:39;14.96;85.69
68276;DHT22;55106;51.438;-0.098;2022-08-21T01:59:05;14.98;85.67
68276;DHT22;55106;51.438;-0.098;2022-08-21T02:01:31;15.00;85.77
68276;DHT22;55106;51.438;-0.098;2022-08-21T02:03:57;15.06;85.77
68276;DHT22;55106;51.438;-0.098;2022-08-21T02:06:23;15.18;85.72
68276;DHT22;55106;51.438;-0.098;2022-08-21T02:08:48;15.23;85.35
68276;DHT22;55106;51.438;-0.098;2022-08-21T02:11:15;15.31;85.16
68276;DHT22;55106;51.438;-0.098;2022-08-21T02:13:41;15.38;85.01
68276;DHT22;55106;51.438;-0.098;2022-08-21T02:16:07;15.45;84.84
68276;DHT22;55106;51.438;-0.098;2022-08-21T02:18:33;15.52;84.72
68276;DHT22;55106;51.438;-0.098;2022-08-21T02:20:59;15.55;84.67
68276;DHT22;55106;51.438;-0.098;2022-08-21T02:23:24;15.55;84.45
68276;DHT22;55106;51.438;-0.098;2022-08-21T02:25:50;15.59;84.63
68276;DHT22;55106;51.438;-0.098;2022-08-21T02:28:19;15.58;84.51
68276;DHT22;55106;51.438;-0.098;2022-08-21T02:30:47;15.61;84.51
68276;DHT22;55106;51.438;-0.098;2022-08-21T02:33:13;15.59;84.46
68276;DHT22;55106;51.438;-0.098;2022-08-21T02:35:41;15.63;84.50
68276;DHT22;55106;51.438;-0.098;2022-08-21T02:38:11;15.66;84.29
68276;DHT22;55106;51.438;-0.098;2022-08-21T02:40:40;15.69;84.26
68276;DHT22;55106;51.438;-0.098;2022-08-21T02:43:06;15.67;84.30
68276;DHT22;55106;51.438;-0.098;2022-08-21T02:45:33;15.69;84.29
68276;DHT22;55106;51.438;-0.098;2022-08-21T02:48:01;15.66;84.32
68276;DHT22;55106;51.438;-0.098;2022-08-21T02:50:31;15.62;84.30
68276;DHT22;55106;51.438;-0.098;2022-08-21T02:52:57;15.63;84.35
68276;DHT22;55106;51.438;-0.098;2022-08-21T02:55:24;15.55;84.51
68276;DHT22;55106;51.438;-0.098;2022-08-21T02:57:51;15.51;84.70
68276;DHT22;55106;51.438;-0.098;2022-08-21T03:00:20;15.42;84.80
68276;DHT22;55106;51.438;-0.098;2022-08-21T03:02:46;15.36;84.99
68276;DHT22;55106;51.438;-0.098;2022-08-21T03:05:13;15.30;85.24
68276;DHT22;55106;51.438;-0.098;2022-08-21T03:07:40;15.30;85.24
68276;DHT22;55106;51.438;-0.098;2022-08-21T03:10:07;15.23;85.52
68276;DHT22;55106;51.438;-0.098;2022-08-21T03:12:33;15.18;85.54
68276;DHT22;55106;51.438;-0.098;2022-08-21T03:15:02;15.12;85.59
68276;DHT22;55106;51.438;-0.098;2022-08-21T03:17:27;15.07;85.77
68276;DHT22;55106;51.438;-0.098;2022-08-21T03:19:53;15.07;85.85
68276;DHT22;55106;51.438;-0.098;2022-08-21T03:22:18;15.00;86.05
68276;DHT22;55106;51.438;-0.098;2022-08-21T03:24:43;14.97;86.25
68276;DHT22;55106;51.438;-0.098;2022-08-21T03:27:10;14.91;86.48
68276;DHT22;55106;51.438;-0.098;2022-08-21T03:29:37;14.90;86.40
68276;DHT22;55106;51.438;-0.098;2022-08-21T03:32:03;14.86;86.59
68276;DHT22;55106;51.438;-0.098;2022-08-21T03:34:29;14.81;86.52
68276;DHT22;55106;51.438;-0.098;2022-08-21T03:36:54;14.75;86.82
68276;DHT22;55106;51.438;-0.098;2022-08-21T03:39:20;14.69;86.63
68276;DHT22;55106;51.438;-0.098;2022-08-21T03:41:45;14.69;87.02
68276;DHT22;55106;51.438;-0.098;2022-08-21T03:44:12;14.65;87.08
68276;DHT22;55106;51.438;-0.098;2022-08-21T03:46:38;14.65;87.33
68276;DHT22;55106;51.438;-0.098;2022-08-21T03:49:04;14.63;87.48
68276;DHT22;55106;51.438;-0.098;2022-08-21T03:51:29;14.60;87.49
68276;DHT22;55106;51.438;-0.098;2022-08-21T03:53:57;14.58;87.65
68276;DHT22;55106;51.438;-0.098;2022-08-21T03:56:23;14.55;87.64
68276;DHT22;55106;51.438;-0.098;2022-08-21T03:58:49;14.53;87.70
68276;DHT22;55106;51.438;-0.098;2022-08-21T04:01:14;14.50;87.61
68276;DHT22;55106;51.438;-0.098;2022-08-21T04:03:40;14.49;87.73
68276;DHT22;55106;51.438;-0.098;2022-08-21T04:06:06;14.50;87.83
68276;DHT22;55106;51.438;-0.098;2022-08-21T04:08:31;14.48;87.84
68276;DHT22;55106;51.438;-0.098;2022-08-21T04:10:58;14.46;87.92
68276;DHT22;55106;51.438;-0.098;2022-08-21T04:13:24;14.45;87.82
68276;DHT22;55106;51.438;-0.098;2022-08-21T04:15:51;14.39;87.79
68276;DHT22;55106;51.438;-0.098;2022-08-21T04:18:17;14.42;88.01
68276;DHT22;55106;51.438;-0.098;2022-08-21T04:20:45;14.39;88.02
68276;DHT22;55106;51.438;-0.098;2022-08-21T04:23:14;14.48;88.14
68276;DHT22;55106;51.438;-0.098;2022-08-21T04:25:39;14.49;88.04
68276;DHT22;55106;51.438;-0.098;2022-08-21T04:28:05;14.48;88.02
68276;DHT22;55106;51.438;-0.098;2022-08-21T04:30:30;14.59;88.01
68276;DHT22;55106;51.438;-0.098;2022-08-21T04:32:57;14.62;87.88
68276;DHT22;55106;51.438;-0.098;2022-08-21T04:35:24;14.65;87.73
68276;DHT22;55106;51.438;-0.098;2022-08-21T04:37:50;14.63;87.63
68276;DHT22;55106;51.438;-0.098;2022-08-21T04:40:18;14.67;87.71
68276;DHT22;55106;51.438;-0.098;2022-08-21T04:42:50;14.72;87.63
68276;DHT22;55106;51.438;-0.098;2022-08-21T04:45:41;14.75;87.41
68276;DHT22;55106;51.438;-0.098;2022-08-21T04:48:08;14.80;87.27
68276;DHT22;55106;51.438;-0.098;2022-08-21T04:50:45;14.84;87.09
68276;DHT22;55106;51.438;-0.098;2022-08-21T04:53:41;14.87;87.06
68276;DHT22;55106;51.438;-0.098;2022-08-21T04:56:40;14.91;86.94
68276;DHT22;55106;51.438;-0.098;2022-08-21T04:59:13;14.94;86.92
68276;DHT22;55106;51.438;-0.098;2022-08-21T05:01:42;14.91;86.71
68276;DHT22;55106;51.438;-0.098;2022-08-21T05:04:11;14.90;86.90
68276;DHT22;55106;51.438;-0.098;2022-08-21T05:06:38;14.81;87.02
68276;DHT22;55106;51.438;-0.098;2022-08-21T05:09:06;14.75;87.00
68276;DHT22;55106;51.438;-0.098;2022-08-21T05:11:35;14.70;87.14
68276;DHT22;55106;51.438;-0.098;2022-08-21T05:14:03;14.66;87.45
68276;DHT22;55106;51.438;-0.098;2022-08-21T05:16:29;14.65;87.56
68276;DHT22;55106;51.438;-0.098;2022-08-21T05:18:55;14.66;87.56
68276;DHT22;55106;51.438;-0.098;2022-08-21T05:21:20;14.69;87.69
68276;DHT22;55106;51.438;-0.098;2022-08-21T05:23:46;14.76;87.43
68276;DHT22;55106;51.438;-0.098;2022-08-21T05:26:12;14.81;87.36
68276;DHT22;55106;51.438;-0.098;2022-08-21T05:28:37;14.94;87.14
68276;DHT22;55106;51.438;-0.098;2022-08-21T05:31:03;15.04;86.89
68276;DHT22;55106;51.438;-0.098;2022-08-21T05:33:28;15.15;86.62
68276;DHT22;55106;51.438;-0.098;2022-08-21T05:35:55;15.20;86.38
68276;DHT22;55106;51.438;-0.098;2022-08-21T05:38:22;15.24;86.13
68276;DHT22;55106;51.438;-0.098;2022-08-21T05:40:48;15.28;85.94
68276;DHT22;55106;51.438;-0.098;2022-08-21T05:43:14;15.35;85.70
68276;DHT22;55106;51.438;-0.098;2022-08-21T05:45:40;15.39;85.56
68276;DHT22;55106;51.438;-0.098;2022-08-21T05:48:24;15.45;85.40
68276;DHT22;55106;51.438;-0.098;2022-08-21T05:50:51;15.54;85.26
68276;DHT22;55106;51.438;-0.098;2022-08-21T05:53:18;15.63;84.97
68276;DHT22;55106;51.438;-0.098;2022-08-21T05:55:45;15.73;84.69
68276;DHT22;55106;51.438;-0.098;2022-08-21T05:58:15;15.81;84.50
68276;DHT22;55106;51.438;-0.098;2022-08-21T06:00:42;15.89;84.14
68276;DHT22;55106;51.438;-0.098;2022-08-21T06:03:12;15.99;83.77
68276;DHT22;55106;51.438;-0.098;2022-08-21T06:05:38;16.11;83.61
68276;DHT22;55106;51.438;-0.098;2022-08-21T06:08:04;16.16;83.35
68276;DHT22;55106;51.438;-0.098;2022-08-21T06:10:30;16.25;82.99
68276;DHT22;55106;51.438;-0.098;2022-08-21T06:12:55;16.32;82.67
68276;DHT22;55106;51.438;-0.098;2022-08-21T06:15:21;16.34;82.43
68276;DHT22;55106;51.438;-0.098;2022-08-21T06:17:47;16.31;82.43
68276;DHT22;55106;51.438;-0.098;2022-08-21T06:20:12;16.28;82.42
68276;DHT22;55106;51.438;-0.098;2022-08-21T06:22:38;16.32;82.26
68276;DHT22;55106;51.438;-0.098;2022-08-21T06:25:04;16.37;82.00
68276;DHT22;55106;51.438;-0.098;2022-08-21T06:27:29;16.45;81.90
68276;DHT22;55106;51.438;-0.098;2022-08-21T06:29:55;16.55;81.66
68276;DHT22;55106;51.438;-0.098;2022-08-21T06:32:22;16.67;81.11
68276;DHT22;55106;51.438;-0.098;2022-08-21T06:34:47;16.80;80.61
68276;DHT22;55106;51.438;-0.098;2022-08-21T06:37:13;17.05;80.25
68276;DHT22;55106;51.438;-0.098;2022-08-21T06:39:41;17.24;79.58
68276;DHT22;55106;51.438;-0.098;2022-08-21T06:42:13;17.38;79.24
68276;DHT22;55106;51.438;-0.098;2022-08-21T06:44:39;17.51;78.65
68276;DHT22;55106;51.438;-0.098;2022-08-21T06:47:04;17.71;77.97
68276;DHT22;55106;51.438;-0.098;2022-08-21T06:49:30;18.30;76.99
68276;DHT22;55106;51.438;-0.098;2022-08-21T06:51:55;18.40;75.96
68276;DHT22;55106;51.438;-0.098;2022-08-21T06:54:21;18.05;76.39
68276;DHT22;55106;51.438;-0.098;2022-08-21T06:56:46;17.96;76.85
68276;DHT22;55106;51.438;-0.098;2022-08-21T06:59:12;17.98;76.57
68276;DHT22;55106;51.438;-0.098;2022-08-21T07:01:37;18.02;76.60
68276;DHT22;55106;51.438;-0.098;2022-08-21T07:04:03;18.14;76.38
68276;DHT22;55106;51.438;-0.098;2022-08-21T07:06:28;18.25;75.92
68276;DHT22;55106;51.438;-0.098;2022-08-21T07:08:54;18.30;75.79
68276;DHT22;55106;51.438;-0.098;2022-08-21T07:11:21;18.29;75.48
68276;DHT22;55106;51.438;-0.098;2022-08-21T07:13:47;18.41;74.97
68276;DHT22;55106;51.438;-0.098;2022-08-21T07:16:13;18.36;74.63
68276;DHT22;55106;51.438;-0.098;2022-08-21T07:18:39;18.46;74.19
68276;DHT22;55106;51.438;-0.098;2022-08-21T07:21:06;18.50;74.60
68276;DHT22;55106;51.438;-0.098;2022-08-21T07:23:34;18.53;74.48
68276;DHT22;55106;51.438;-0.098;2022-08-21T07:26:00;18.53;73.78
68276;DHT22;55106;51.438;-0.098;2022-08-21T07:28:26;18.63;73.93
68276;DHT22;55106;51.438;-0.098;2022-08-21T07:30:54;18.72;73.45
68276;DHT22;55106;51.438;-0.098;2022-08-21T07:33:21;18.83;72.71
68276;DHT22;55106;51.438;-0.098;2022-08-21T07:35:46;18.83;72.46
68276;DHT22;55106;51.438;-0.098;2022-08-21T07:38:11;18.84;72.66
68276;DHT22;55106;51.438;-0.098;2022-08-21T07:40:37;18.92;72.64
68276;DHT22;55106;51.438;-0.098;2022-08-21T07:43:02;18.95;72.57
68276;DHT22;55106;51.438;-0.098;2022-08-21T07:45:28;18.97;71.62
68276;DHT22;55106;51.438;-0.098;2022-08-21T07:47:53;18.97;72.14
68276;DHT22;55106;51.438;-0.098;2022-08-21T07:50:19;18.95;72.37
68276;DHT22;55106;51.438;-0.098;2022-08-21T07:52:45;18.87;72.21
68276;DHT22;55106;51.438;-0.098;2022-08-21T07:55:13;19.08;71.95
68276;DHT22;55106;51.438;-0.098;2022-08-21T07:57:40;19.09;71.83
68276;DHT22;55106;51.438;-0.098;2022-08-21T08:00:08;19.28;71.56
68276;DHT22;55106;51.438;-0.098;2022-08-21T08:02:35;19.32;70.89
68276;DHT22;55106;51.438;-0.098;2022-08-21T08:05:08;19.46;70.19
68276;DHT22;55106;51.438;-0.098;2022-08-21T08:07:34;19.56;70.18
68276;DHT22;55106;51.438;-0.098;2022-08-21T08:10:01;19.77;69.60
68276;DHT22;55106;51.438;-0.098;2022-08-21T08:12:26;19.87;68.91
68276;DHT22;55106;51.438;-0.098;2022-08-21T08:14:59;19.97;68.81
68276;DHT22;55106;51.438;-0.098;2022-08-21T08:17:25;19.97;68.77
68276;DHT22;55106;51.438;-0.098;2022-08-21T08:19:51;20.07;68.61
68276;DHT22;55106;51.438;-0.098;2022-08-21T08:22:19;20.01;68.15
68276;DHT22;55106;51.438;-0.098;2022-08-21T08:24:46;20.04;68.39
68276;DHT22;55106;51.438;-0.098;2022-08-21T08:27:12;20.07;68.10
68276;DHT22;55106;51.438;-0.098;2022-08-21T08:29:38;20.00;68.38
68276;DHT22;55106;51.438;-0.098;2022-08-21T08:32:04;19.80;68.38
68276;DHT22;55106;51.438;-0.098;2022-08-21T08:34:32;19.91;68.65
68276;DHT22;55106;51.438;-0.098;2022-08-21T08:36:58;20.00;68.57
68276;DHT22;55106;51.438;-0.098;2022-08-21T08:39:24;20.07;68.73
68276;DHT22;55106;51.438;-0.098;2022-08-21T08:41:59;20.28;67.43
68276;DHT22;55106;51.438;-0.098;2022-08-21T08:44:29;20.38;67.56
68276;DHT22;55106;51.438;-0.098;2022-08-21T08:46:56;20.81;66.23
68276;DHT22;55106;51.438;-0.098;2022-08-21T08:49:51;21.15;65.16
68276;DHT22;55106;51.438;-0.098;2022-08-21T08:52:30;22.00;63.40
68276;DHT22;55106;51.438;-0.098;2022-08-21T08:55:09;22.54;61.10
68276;DHT22;55106;51.438;-0.098;2022-08-21T08:57:38;23.09;59.38
68276;DHT22;55106;51.438;-0.098;2022-08-21T09:00:08;23.26;58.69
68276;DHT22;55106;51.438;-0.098;2022-08-21T09:02:38;23.56;58.18
68276;DHT22;55106;51.438;-0.098;2022-08-21T09:05:04;23.70;56.91
68276;DHT22;55106;51.438;-0.098;2022-08-21T09:10:24;24.22;56.39
68276;DHT22;55106;51.438;-0.098;2022-08-21T09:13:11;24.79;54.30
68276;DHT22;55106;51.438;-0.098;2022-08-21T09:16:09;24.90;53.66
68276;DHT22;55106;51.438;-0.098;2022-08-21T09:27:10;27.47;47.20
68276;DHT22;55106;51.438;-0.098;2022-08-21T09:29:44;27.34;46.42
68276;DHT22;55106;51.438;-0.098;2022-08-21T09:32:15;26.40;48.87
68276;DHT22;55106;51.438;-0.098;2022-08-21T09:34:58;27.75;46.11
68276;DHT22;55106;51.438;-0.098;2022-08-21T09:37:24;27.30;46.50
68276;DHT22;55106;51.438;-0.098;2022-08-21T09:39:50;26.81;48.19
68276;DHT22;55106;51.438;-0.098;2022-08-21T09:42:25;26.85;47.46
68276;DHT22;55106;51.438;-0.098;2022-08-21T09:45:16;28.67;44.97
68276;DHT22;55106;51.438;-0.098;2022-08-21T09:47:42;29.72;43.01
68276;DHT22;55106;51.438;-0.098;2022-08-21T09:50:21;30.69;41.60
68276;DHT22;55106;51.438;-0.098;2022-08-21T09:53:14;30.11;40.08
68276;DHT22;55106;51.438;-0.098;2022-08-21T09:59:27;30.03;40.30
68276;DHT22;55106;51.438;-0.098;2022-08-21T10:01:58;29.05;40.29
68276;DHT22;55106;51.438;-0.098;2022-08-21T10:04:32;29.02;42.30
68276;DHT22;55106;51.438;-0.098;2022-08-21T10:07:09;28.32;42.78
68276;DHT22;55106;51.438;-0.098;2022-08-21T10:09:35;26.14;46.84
68276;DHT22;55106;51.438;-0.098;2022-08-21T10:17:40;26.07;46.33
68276;DHT22;55106;51.438;-0.098;2022-08-21T10:20:10;26.91;45.32
68276;DHT22;55106;51.438;-0.098;2022-08-21T10:23:07;27.10;45.09
68276;DHT22;55106;51.438;-0.098;2022-08-21T10:25:43;26.69;44.48
68276;DHT22;55106;51.438;-0.098;2022-08-21T10:30:58;25.76;47.42
68276;DHT22;55106;51.438;-0.098;2022-08-21T10:36:24;26.33;46.81
68276;DHT22;55106;51.438;-0.098;2022-08-21T10:39:49;26.14;46.87
68276;DHT22;55106;51.438;-0.098;2022-08-21T10:47:32;26.21;46.25
68276;DHT22;55106;51.438;-0.098;2022-08-21T10:55:43;25.11;48.50
68276;DHT22;55106;51.438;-0.098;2022-08-21T10:58:18;25.45;47.13
68276;DHT22;55106;51.438;-0.098;2022-08-21T11:00:54;25.46;47.50
68276;DHT22;55106;51.438;-0.098;2022-08-21T11:03:32;25.43;47.70
68276;DHT22;55106;51.438;-0.098;2022-08-21T11:06:04;25.08;48.01
68276;DHT22;55106;51.438;-0.098;2022-08-21T11:08:37;25.07;48.87
68276;DHT22;55106;51.438;-0.098;2022-08-21T11:11:11;24.62;50.22
68276;DHT22;55106;51.438;-0.098;2022-08-21T11:13:47;24.26;49.29
68276;DHT22;55106;51.438;-0.098;2022-08-21T11:21:50;24.11;51.12
68276;DHT22;55106;51.438;-0.098;2022-08-21T11:30:05;24.56;50.83
68276;DHT22;55106;51.438;-0.098;2022-08-21T11:35:48;24.74;48.77
68276;DHT22;55106;51.438;-0.098;2022-08-21T11:38:51;24.36;50.19
68276;DHT22;55106;51.438;-0.098;2022-08-21T11:44:11;24.51;49.94
68276;DHT22;55106;51.438;-0.098;2022-08-21T11:52:34;24.42;49.65
68276;DHT22;55106;51.438;-0.098;2022-08-21T11:55:08;24.69;51.08
68276;DHT22;55106;51.438;-0.098;2022-08-21T11:58:04;24.25;51.56
68276;DHT22;55106;51.438;-0.098;2022-08-21T12:00:39;24.88;51.01
68276;DHT22;55106;51.438;-0.098;2022-08-21T12:03:13;23.95;51.98
68276;DHT22;55106;51.438;-0.098;2022-08-21T12:05:44;24.57;52.50
68276;DHT22;55106;51.438;-0.098;2022-08-21T12:08:41;24.57;51.96
68276;DHT22;55106;51.438;-0.098;2022-08-21T12:11:24;24.48;51.53
68276;DHT22;55106;51.438;-0.098;2022-08-21T12:13:58;24.04;51.27
68276;DHT22;55106;51.438;-0.098;2022-08-21T12:16:33;23.54;51.55
68276;DHT22;55106;51.438;-0.098;2022-08-21T12:19:12;23.09;52.20
68276;DHT22;55106;51.438;-0.098;2022-08-21T12:24:33;24.36;51.84
68276;DHT22;55106;51.438;-0.098;2022-08-21T12:30:05;25.79;48.61
68276;DHT22;55106;51.438;-0.098;2022-08-21T12:32:44;25.11;50.17
68276;DHT22;55106;51.438;-0.098;2022-08-21T12:35:15;25.43;48.87
68276;DHT22;55106;51.438;-0.098;2022-08-21T12:38:09;25.67;48.69
68276;DHT22;55106;51.438;-0.098;2022-08-21T12:40:40;26.10;47.73
68276;DHT22;55106;51.438;-0.098;2022-08-21T12:43:13;26.63;46.79
68276;DHT22;55106;51.438;-0.098;2022-08-21T12:45:43;27.14;44.95
68276;DHT22;55106;51.438;-0.098;2022-08-21T12:48:14;27.03;44.09
68276;DHT22;55106;51.438;-0.098;2022-08-21T12:50:45;26.67;44.37
68276;DHT22;55106;51.438;-0.098;2022-08-21T12:55:50;26.99;43.84
68276;DHT22;55106;51.438;-0.098;2022-08-21T12:58:21;26.96;44.72
68276;DHT22;55106;51.438;-0.098;2022-08-21T13:00:53;26.62;44.86
68276;DHT22;55106;51.438;-0.098;2022-08-21T13:03:21;27.06;44.19
68276;DHT22;55106;51.438;-0.098;2022-08-21T13:05:47;26.93;44.00
68276;DHT22;55106;51.438;-0.098;2022-08-21T13:08:17;27.02;45.29
68276;DHT22;55106;51.438;-0.098;2022-08-21T13:10:46;27.07;43.67
68276;DHT22;55106;51.438;-0.098;2022-08-21T13:13:20;26.69;43.40
68276;DHT22;55106;51.438;-0.098;2022-08-21T13:15:46;27.07;43.96
68276;DHT22;55106;51.438;-0.098;2022-08-21T13:18:24;27.16;43.94
68276;DHT22;55106;51.438;-0.098;2022-08-21T13:20:50;26.88;45.39
68276;DHT22;55106;51.438;-0.098;2022-08-21T13:23:24;26.55;44.31
68276;DHT22;55106;51.438;-0.098;2022-08-21T13:25:50;26.82;44.38
68276;DHT22;55106;51.438;-0.098;2022-08-21T13:28:16;26.67;44.99
68276;DHT22;55106;51.438;-0.098;2022-08-21T13:30:43;27.09;44.71
68276;DHT22;55106;51.438;-0.098;2022-08-21T13:33:10;26.51;45.28
68276;DHT22;55106;51.438;-0.098;2022-08-21T13:38:26;26.43;45.96
68276;DHT22;55106;51.438;-0.098;2022-08-21T13:40:56;26.73;44.45
68276;DHT22;55106;51.438;-0.098;2022-08-21T13:43:27;26.48;44.46
68276;DHT22;55106;51.438;-0.098;2022-08-21T13:45:54;26.61;43.04
68276;DHT22;55106;51.438;-0.098;2022-08-21T13:48:23;26.13;43.27
68276;DHT22;55106;51.438;-0.098;2022-08-21T13:50:50;25.32;46.11
68276;DHT22;55106;51.438;-0.098;2022-08-21T13:53:32;25.20;44.64
68276;DHT22;55106;51.438;-0.098;2022-08-21T13:55:59;25.29;46.58
68276;DHT22;55106;51.438;-0.098;2022-08-21T13:58:31;25.31;46.22
68276;DHT22;55106;51.438;-0.098;2022-08-21T14:00:59;24.95;46.05
68276;DHT22;55106;51.438;-0.098;2022-08-21T14:03:41;24.79;45.94
68276;DHT22;55106;51.438;-0.098;2022-08-21T14:06:17;24.67;45.71
68276;DHT22;55106;51.438;-0.098;2022-08-21T14:08:49;24.63;46.19
68276;DHT22;55106;51.438;-0.098;2022-08-21T14:11:16;24.46;46.90
68276;DHT22;55106;51.438;-0.098;2022-08-21T14:14:41;24.40;47.21
68276;DHT22;55106;51.438;-0.098;2022-08-21T14:16:52;24.60;47.84
68276;DHT22;55106;51.438;-0.098;2022-08-21T14:19:19;24.62;46.35
68276;DHT22;55106;51.438;-0.098;2022-08-21T14:21:44;24.69;47.27
68276;DHT22;55106;51.438;-0.098;2022-08-21T14:24:26;24.69;47.22
68276;DHT22;55106;51.438;-0.098;2022-08-21T14:27:06;24.45;46.10
68276;DHT22;55106;51.438;-0.098;2022-08-21T14:29:37;24.14;46.45
68276;DHT22;55106;51.438;-0.098;2022-08-21T14:32:15;23.91;47.58
68276;DHT22;55106;51.438;-0.098;2022-08-21T14:34:41;23.88;47.46
68276;DHT22;55106;51.438;-0.098;2022-08-21T14:37:10;23.68;46.67
68276;DHT22;55106;51.438;-0.098;2022-08-21T14:39:35;23.61;48.42
68276;DHT22;55106;51.438;-0.098;2022-08-21T14:42:01;23.68;47.90
68276;DHT22;55106;51.438;-0.098;2022-08-21T14:44:27;23.84;48.29
68276;DHT22;55106;51.438;-0.098;2022-08-21T14:46:53;23.78;47.22
68276;DHT22;55106;51.438;-0.098;2022-08-21T14:49:19;23.73;47.07
68276;DHT22;55106;51.438;-0.098;2022-08-21T14:51:44;23.61;47.93
68276;DHT22;55106;51.438;-0.098;2022-08-21T14:54:10;23.50;49.57
68276;DHT22;55106;51.438;-0.098;2022-08-21T14:56:35;23.34;49.69
68276;DHT22;55106;51.438;-0.098;2022-08-21T14:59:06;23.31;48.23
68276;DHT22;55106;51.438;-0.098;2022-08-21T15:01:34;23.10;48.40
68276;DHT22;55106;51.438;-0.098;2022-08-21T15:04:00;23.02;49.82
68276;DHT22;55106;51.438;-0.098;2022-08-21T15:06:26;22.72;49.07
68276;DHT22;55106;51.438;-0.098;2022-08-21T15:08:51;22.68;49.10
68276;DHT22;55106;51.438;-0.098;2022-08-21T15:11:21;22.67;50.26
68276;DHT22;55106;51.438;-0.098;2022-08-21T15:13:56;22.65;48.98
68276;DHT22;55106;51.438;-0.098;2022-08-21T15:16:22;22.58;50.29
68276;DHT22;55106;51.438;-0.098;2022-08-21T15:18:48;22.60;49.38
68276;DHT22;55106;51.438;-0.098;2022-08-21T15:21:14;22.60;49.77
68276;DHT22;55106;51.438;-0.098;2022-08-21T15:23:40;22.54;49.89
68276;DHT22;55106;51.438;-0.098;2022-08-21T15:26:06;22.68;49.63
68276;DHT22;55106;51.438;-0.098;2022-08-21T15:28:31;22.76;49.50
68276;DHT22;55106;51.438;-0.098;2022-08-21T15:30:59;22.81;48.78
68276;DHT22;55106;51.438;-0.098;2022-08-21T15:33:25;22.91;48.78
68276;DHT22;55106;51.438;-0.098;2022-08-21T15:35:50;23.03;49.26
68276;DHT22;55106;51.438;-0.098;2022-08-21T15:38:16;23.05;48.89
68276;DHT22;55106;51.438;-0.098;2022-08-21T15:40:43;23.02;48.32
68276;DHT22;55106;51.438;-0.098;2022-08-21T15:43:30;22.99;49.16
68276;DHT22;55106;51.438;-0.098;2022-08-21T15:45:58;22.98;49.22
68276;DHT22;55106;51.438;-0.098;2022-08-21T15:48:24;23.01;48.70
68276;DHT22;55106;51.438;-0.098;2022-08-21T15:50:50;23.16;49.16
68276;DHT22;55106;51.438;-0.098;2022-08-21T15:53:15;23.23;47.83
68276;DHT22;55106;51.438;-0.098;2022-08-21T15:55:41;23.24;47.76
68276;DHT22;55106;51.438;-0.098;2022-08-21T15:58:08;23.27;47.77
68276;DHT22;55106;51.438;-0.098;2022-08-21T16:00:37;23.26;47.36
68276;DHT22;55106;51.438;-0.098;2022-08-21T16:03:04;23.33;47.47
68276;DHT22;55106;51.438;-0.098;2022-08-21T16:05:30;23.37;47.88
68276;DHT22;55106;51.438;-0.098;2022-08-21T16:07:57;23.37;48.06
68276;DHT22;55106;51.438;-0.098;2022-08-21T16:10:23;23.42;47.46
68276;DHT22;55106;51.438;-0.098;2022-08-21T16:12:54;23.47;47.20
68276;DHT22;55106;51.438;-0.098;2022-08-21T16:15:21;23.36;47.52
68276;DHT22;55106;51.438;-0.098;2022-08-21T16:17:47;23.47;49.20
68276;DHT22;55106;51.438;-0.098;2022-08-21T16:20:18;23.60;48.71
68276;DHT22;55106;51.438;-0.098;2022-08-21T16:22:44;23.73;49.04
68276;DHT22;55106;51.438;-0.098;2022-08-21T16:25:10;23.85;47.86
68276;DHT22;55106;51.438;-0.098;2022-08-21T16:27:36;23.95;48.49
68276;DHT22;55106;51.438;-0.098;2022-08-21T16:30:04;24.11;47.69
68276;DHT22;55106;51.438;-0.098;2022-08-21T16:32:29;24.24;48.25
68276;DHT22;55106;51.438;-0.098;2022-08-21T16:34:56;24.18;46.65
68276;DHT22;55106;51.438;-0.098;2022-08-21T16:37:22;24.04;47.75
68276;DHT22;55106;51.438;-0.098;2022-08-21T16:39:48;24.08;47.96
68276;DHT22;55106;51.438;-0.098;2022-08-21T16:42:17;24.01;45.94